createdAt,value
2018-06-22T00:01:58.546Z,1.80
2018-06-22T00:04:29.366Z,2.00
2018-06-22T00:06:58.768Z,2.77
2018-06-22T00:09:28.146Z,2.00
2018-06-22T00:11:57.507Z,2.43
2018-06-22T00:14:26.776Z,2.20
2018-06-22T00:16:56.045Z,2.30
2018-06-22T00:19:25.288Z,1.80
2018-06-22T00:21:54.661Z,2.30
2018-06-22T00:24:23.907Z,1.87
2018-06-22T00:26:53.276Z,2.00
2018-06-22T00:29:22.588Z,1.90
2018-06-22T00:31:51.845Z,2.30
2018-06-22T00:34:21.129Z,2.27
2018-06-22T00:36:50.379Z,2.10
2018-06-22T00:39:19.742Z,2.50
2018-06-22T00:41:48.901Z,2.00
2018-06-22T00:44:18.181Z,2.10
2018-06-22T00:46:47.261Z,1.90
2018-06-22T00:49:16.602Z,2.00
2018-06-22T00:51:45.878Z,1.43
2018-06-22T00:54:17.496Z,1.90
2018-06-22T00:56:47.299Z,2.07
2018-06-22T00:59:16.635Z,2.40
2018-06-22T01:01:46.049Z,2.20
2018-06-22T01:04:15.327Z,2.43
2018-06-22T01:06:44.596Z,2.43
2018-06-22T01:09:14.804Z,2.07
2018-06-22T01:11:44.061Z,2.00
2018-06-22T01:14:13.418Z,1.97
2018-06-22T01:16:42.790Z,2.13
2018-06-22T01:19:12.087Z,2.10
2018-06-22T01:21:42.058Z,2.23
2018-06-22T01:24:11.363Z,2.00
2018-06-22T01:26:40.741Z,2.00
2018-06-22T01:29:15.267Z,2.20
2018-06-22T01:31:44.667Z,2.23
2018-06-22T01:34:13.961Z,2.03
2018-06-22T01:36:43.215Z,1.97
2018-06-22T01:39:12.507Z,2.50
2018-06-22T01:41:41.802Z,2.20
2018-06-22T01:44:11.251Z,2.17
2018-06-22T01:46:40.544Z,2.13
2018-06-22T01:49:09.839Z,2.10
2018-06-22T01:51:39.173Z,2.07
2018-06-22T01:54:08.439Z,2.13
2018-06-22T01:56:37.669Z,2.00
2018-06-22T01:59:07.045Z,1.97
2018-06-22T02:01:46.427Z,2.33
2018-06-22T02:04:15.847Z,2.20
2018-06-22T02:06:47.967Z,2.20
2018-06-22T02:09:17.261Z,1.80
2018-06-22T02:11:46.545Z,1.93
2018-06-22T02:14:15.804Z,2.00
2018-06-22T02:16:44.910Z,1.83
2018-06-22T02:19:14.301Z,2.40
2018-06-22T02:21:43.589Z,2.70
2018-06-22T02:24:12.909Z,2.10
2018-06-22T02:26:42.292Z,2.27
2018-06-22T02:29:11.569Z,2.07
2018-06-22T02:31:40.902Z,1.63
2018-06-22T02:34:10.319Z,2.23
2018-06-22T02:36:39.613Z,1.73
2018-06-22T02:39:11.167Z,2.17
2018-06-22T02:41:40.575Z,2.30
2018-06-22T02:44:09.911Z,2.17
2018-06-22T02:46:39.215Z,2.43
2018-06-22T02:49:08.482Z,1.70
2018-06-22T02:51:37.714Z,1.90
2018-06-22T02:54:07.120Z,2.00
2018-06-22T02:56:37.515Z,2.30
2018-06-22T02:59:06.779Z,2.10
2018-06-22T03:01:36.126Z,2.67
2018-06-22T03:04:05.455Z,2.50
2018-06-22T03:06:34.802Z,1.90
2018-06-22T03:09:05.818Z,2.37
2018-06-22T03:11:35.059Z,1.97
2018-06-22T03:14:04.313Z,2.10
2018-06-22T03:16:33.657Z,2.23
2018-06-22T03:19:02.992Z,3.20
2018-06-22T03:21:32.328Z,2.40
2018-06-22T03:24:01.602Z,2.20
2018-06-22T03:26:31.015Z,4.17
2018-06-22T03:29:00.302Z,1.80
2018-06-22T03:31:29.777Z,2.20
2018-06-22T03:33:59.081Z,2.30
2018-06-22T03:36:28.318Z,2.47
2018-06-22T03:38:57.628Z,2.10
2018-06-22T03:41:26.896Z,2.10
2018-06-22T03:43:56.146Z,2.47
2018-06-22T03:46:25.454Z,1.83
2018-06-22T03:48:54.704Z,2.17
2018-06-22T03:51:23.993Z,2.07
2018-06-22T03:53:53.257Z,2.20
2018-06-22T03:56:22.571Z,2.17
2018-06-22T03:58:51.901Z,2.50
2018-06-22T04:01:21.219Z,2.23
2018-06-22T04:03:50.497Z,2.07
2018-06-22T04:06:19.835Z,2.20
2018-06-22T04:08:49.266Z,2.40
2018-06-22T04:11:18.590Z,2.10
2018-06-22T04:13:47.852Z,2.30
2018-06-22T04:16:17.122Z,2.20
2018-06-22T04:18:46.425Z,2.67
2018-06-22T04:21:15.793Z,2.03
2018-06-22T04:23:45.101Z,2.00
2018-06-22T04:26:14.561Z,2.40
2018-06-22T04:28:43.903Z,2.53
2018-06-22T04:31:13.224Z,2.20
2018-06-22T04:33:42.531Z,2.40
2018-06-22T04:36:11.891Z,1.80
2018-06-22T04:38:41.306Z,1.97
2018-06-22T04:41:10.595Z,1.97
2018-06-22T04:43:39.915Z,2.20
2018-06-22T04:46:09.553Z,1.90
2018-06-22T04:48:38.832Z,2.27
2018-06-22T04:51:08.089Z,2.47
2018-06-22T04:53:37.357Z,2.40
2018-06-22T04:56:06.669Z,2.10
2018-06-22T04:58:35.975Z,2.20
2018-06-22T05:01:05.220Z,1.93
2018-06-22T05:03:34.653Z,2.60
2018-06-22T05:06:04.128Z,2.20
2018-06-22T05:08:33.418Z,2.30
2018-06-22T05:11:02.777Z,2.63
2018-06-22T05:13:32.039Z,2.30
2018-06-22T05:16:01.427Z,2.20
2018-06-22T05:18:30.841Z,1.90
2018-06-22T05:21:00.116Z,2.20
2018-06-22T05:23:29.251Z,2.10
2018-06-22T05:25:58.766Z,2.30
2018-06-22T05:28:28.052Z,2.40
2018-06-22T05:30:57.106Z,1.90
2018-06-22T05:33:26.504Z,2.43
2018-06-22T05:35:55.854Z,2.07
2018-06-22T05:38:25.203Z,2.57
2018-06-22T05:40:56.577Z,2.30
2018-06-22T05:43:25.869Z,2.00
2018-06-22T05:45:55.212Z,2.00
2018-06-22T05:48:24.529Z,2.30
2018-06-22T05:50:53.920Z,2.40
2018-06-22T05:53:23.157Z,1.90
2018-06-22T05:55:52.476Z,2.30
2018-06-22T05:58:21.763Z,2.10
2018-06-22T06:00:51.518Z,2.37
2018-06-22T06:03:20.811Z,2.40
2018-06-22T06:05:50.103Z,2.07
2018-06-22T06:08:19.370Z,1.90
2018-06-22T06:10:48.778Z,1.83
2018-06-22T06:13:18.046Z,1.77
2018-06-22T06:15:47.338Z,2.20
2018-06-22T06:18:16.723Z,2.13
2018-06-22T06:20:46.053Z,2.57
2018-06-22T06:23:15.467Z,2.33
2018-06-22T06:25:44.868Z,2.10
2018-06-22T08:47:57.242Z,3.10
2018-06-22T08:50:27.567Z,3.07
2018-06-22T08:52:58.957Z,3.60
2018-06-22T08:55:29.796Z,3.17
2018-06-22T08:57:59.382Z,4.00
2018-06-22T09:00:29.818Z,3.20
2018-06-22T09:03:01.051Z,3.73
2018-06-22T09:05:30.499Z,3.90
2018-06-22T09:07:59.939Z,3.57
2018-06-22T09:10:31.419Z,3.30
2018-06-22T09:13:03.214Z,3.30
2018-06-22T09:15:34.298Z,3.50
2018-06-22T09:18:05.872Z,3.27
2018-06-22T09:20:35.265Z,3.23
2018-06-22T09:23:05.146Z,2.83
2018-06-22T09:25:34.636Z,3.50
2018-06-22T09:28:04.977Z,4.33
2018-06-22T09:30:34.408Z,3.83
2018-06-22T09:33:07.875Z,3.60
2018-06-22T09:35:38.354Z,3.93
2018-06-22T09:38:07.786Z,3.50
2018-06-22T09:40:43.250Z,3.97
2018-06-22T09:43:15.980Z,3.53
2018-06-22T09:45:45.591Z,4.10
2018-06-22T09:48:14.942Z,4.13
2018-06-22T09:50:44.277Z,3.90
2018-06-22T09:53:13.886Z,4.70
2018-06-22T09:55:43.236Z,4.10
2018-06-22T09:58:12.799Z,4.90
2018-06-22T10:00:46.076Z,4.40
2018-06-22T10:03:15.555Z,4.20
2018-06-22T10:05:44.852Z,3.13
2018-06-22T10:08:14.295Z,4.30
2018-06-22T10:10:43.594Z,3.37
2018-06-22T10:13:13.017Z,4.00
2018-06-22T10:15:46.539Z,2.97
2018-06-22T10:18:15.938Z,3.43
2018-06-22T10:20:45.237Z,3.37
2018-06-22T10:23:14.660Z,3.03
2018-06-22T10:25:44.215Z,3.57
2018-06-22T10:28:13.631Z,3.00
2018-06-22T10:30:43.136Z,3.50
2018-06-22T10:33:12.646Z,3.77
2018-06-22T10:35:49.431Z,2.93
2018-06-22T10:38:18.860Z,2.50
2018-06-22T10:40:51.275Z,2.90
2018-06-22T10:43:22.265Z,2.60
2018-06-22T10:46:01.060Z,2.77
2018-06-22T10:48:30.549Z,3.20
2018-06-22T10:50:59.847Z,2.93
2018-06-22T10:53:35.039Z,3.37
2018-06-22T10:56:05.763Z,3.00
2018-06-22T10:58:35.958Z,3.20
2018-06-22T11:01:16.211Z,4.57
2018-06-22T11:03:49.789Z,2.60
2018-06-22T11:06:22.791Z,2.83
2018-06-22T11:08:52.811Z,3.77
2018-06-22T11:11:22.248Z,2.73
2018-06-22T11:13:54.153Z,2.77
2018-06-22T11:16:26.024Z,2.90
2018-06-22T11:18:57.867Z,2.93
2018-06-22T11:21:27.278Z,2.73
2018-06-22T11:23:56.569Z,3.13
2018-06-22T11:26:26.218Z,3.10
2018-06-22T11:28:55.564Z,3.00
2018-06-22T11:31:24.977Z,3.47
2018-06-22T11:33:54.358Z,3.03
2018-06-22T11:36:27.453Z,3.50
2018-06-22T11:38:58.543Z,3.03
2018-06-22T11:41:30.423Z,2.53
2018-06-22T11:44:01.900Z,2.40
2018-06-22T11:46:31.271Z,2.40
2018-06-22T11:49:00.588Z,2.40
2018-06-22T11:51:30.004Z,2.40
2018-06-22T11:54:02.266Z,2.70
2018-06-22T11:56:31.967Z,2.33
2018-06-22T11:59:02.454Z,2.00
2018-06-22T12:01:31.989Z,2.13
2018-06-22T12:04:01.369Z,1.87
2018-06-22T12:06:30.703Z,2.20
2018-06-22T12:09:00.017Z,2.00
2018-06-22T12:11:29.365Z,2.90
2018-06-22T12:14:00.683Z,3.17
2018-06-22T12:16:30.020Z,2.83
2018-06-22T12:18:59.308Z,3.30
2018-06-22T12:21:28.957Z,3.10
2018-06-22T12:23:58.301Z,2.93
2018-06-22T12:26:27.576Z,3.30
2018-06-22T12:28:56.976Z,2.90
2018-06-22T12:31:26.428Z,3.53
2018-06-22T12:33:55.778Z,2.93
2018-06-22T12:36:25.043Z,3.40
2018-06-22T12:38:54.301Z,2.80
2018-06-22T12:41:23.669Z,3.10
2018-06-22T12:43:52.971Z,2.97
2018-06-22T12:46:22.203Z,3.43
2018-06-22T12:48:51.504Z,2.97
2018-06-22T12:51:20.816Z,3.10
2018-06-22T12:53:50.128Z,3.00
2018-06-22T12:56:19.448Z,2.40
2018-06-22T12:58:48.764Z,3.27
2018-06-22T13:01:17.940Z,2.63
2018-06-22T13:03:47.287Z,2.83
2018-06-22T13:06:16.606Z,3.20
2018-06-22T13:08:45.891Z,2.80
2018-06-22T13:11:15.542Z,2.37
2018-06-22T13:13:44.595Z,2.40
2018-06-22T13:16:14.070Z,2.50
2018-06-22T13:18:43.368Z,2.57
2018-06-22T13:21:12.699Z,2.40
2018-06-22T13:23:41.997Z,2.47
2018-06-22T13:26:11.633Z,2.07
2018-06-22T13:28:41.150Z,2.20
2018-06-22T13:31:10.466Z,1.87
2018-06-22T13:33:39.845Z,1.60
2018-06-22T13:36:09.425Z,2.20
2018-06-22T13:38:38.702Z,1.80
2018-06-22T13:41:07.990Z,1.70
2018-06-22T13:43:37.335Z,1.77
2018-06-22T13:46:06.752Z,1.60
2018-06-22T13:48:37.072Z,1.70
2018-06-22T13:51:06.346Z,1.57
2018-06-22T13:53:35.813Z,2.17
2018-06-22T13:56:07.301Z,2.27
2018-06-22T13:58:36.577Z,2.10
2018-06-22T14:01:05.858Z,2.30
2018-06-22T14:03:35.152Z,2.17
2018-06-22T14:06:09.515Z,2.30
2018-06-22T14:08:38.895Z,1.70
2018-06-22T14:11:08.218Z,2.47
2018-06-22T14:13:37.511Z,2.33
2018-06-22T14:16:07.106Z,2.30
2018-06-22T14:18:36.465Z,2.23
2018-06-22T14:21:06.241Z,2.10
2018-06-22T14:23:35.535Z,2.30
2018-06-22T14:26:05.236Z,2.27
2018-06-22T14:28:34.503Z,2.30
2018-06-22T14:31:03.763Z,2.03
2018-06-22T14:33:37.635Z,2.30
2018-06-22T14:36:10.259Z,2.03
2018-06-22T14:38:39.903Z,2.00
2018-06-22T14:41:09.202Z,1.90
2018-06-22T14:43:38.500Z,2.20
2018-06-22T14:46:12.530Z,1.83
2018-06-22T14:48:43.368Z,1.60
2018-06-22T14:51:14.422Z,1.50
2018-06-22T14:53:49.125Z,1.80
2018-06-22T14:56:23.580Z,1.70
2018-06-22T14:58:59.088Z,1.80
2018-06-22T15:01:33.416Z,1.70
2018-06-22T15:04:08.133Z,1.90
2018-06-22T15:06:42.648Z,1.90
2018-06-22T15:09:13.949Z,1.43
2018-06-22T15:11:43.360Z,1.70
2018-06-22T15:14:12.698Z,2.30
2018-06-22T15:16:42.159Z,1.80
2018-06-22T15:19:11.751Z,1.90
2018-06-22T15:21:41.100Z,1.80
2018-06-22T15:24:10.457Z,1.80
2018-06-22T15:26:42.537Z,1.63
2018-06-22T15:29:14.602Z,1.67
2018-06-22T15:31:45.174Z,2.00
2018-06-22T15:34:20.108Z,1.60
2018-06-22T15:36:54.599Z,2.13
2018-06-22T15:39:29.215Z,1.70
2018-06-22T15:42:03.985Z,1.83
2018-06-22T15:44:38.430Z,1.97
2018-06-22T15:47:12.874Z,1.73
2018-06-22T15:49:49.025Z,2.43
2018-06-22T15:52:23.602Z,2.33
2018-06-22T15:54:59.346Z,2.20
2018-06-22T15:57:29.641Z,2.17
2018-06-22T16:00:02.454Z,2.27
2018-06-22T16:02:36.955Z,2.20
2018-06-22T16:05:07.658Z,2.20
2018-06-22T16:07:39.809Z,1.90
2018-06-22T16:10:11.514Z,2.20
2018-06-22T16:12:42.798Z,2.10
2018-06-22T16:15:20.208Z,1.70
2018-06-22T16:17:56.931Z,2.33
2018-06-22T16:20:33.377Z,2.07
2018-06-22T16:23:09.716Z,1.57
2018-06-22T16:25:45.207Z,1.93
2018-06-22T16:28:18.519Z,2.10
2018-06-22T16:30:48.051Z,2.20
2018-06-22T16:33:18.589Z,1.80
2018-06-22T16:35:49.456Z,2.00
2018-06-22T16:38:18.827Z,2.30
2018-06-22T16:40:50.525Z,2.03
2018-06-22T16:43:20.901Z,1.90
2018-06-22T16:45:52.528Z,1.60
2018-06-22T16:48:21.931Z,1.73
2018-06-22T16:50:51.229Z,2.00
2018-06-22T16:53:22.610Z,2.20
2018-06-22T16:55:51.907Z,2.10
2018-06-22T16:58:26.575Z,2.00
2018-06-22T17:00:55.849Z,1.83
2018-06-22T17:03:25.203Z,1.83
2018-06-22T17:05:54.521Z,2.10
2018-06-22T17:08:28.832Z,1.77
2018-06-22T17:11:03.523Z,1.73
2018-06-22T17:13:38.156Z,2.00
2018-06-22T17:16:12.774Z,2.10
2018-06-22T17:18:47.314Z,2.00
2018-06-22T17:21:16.602Z,2.23
2018-06-22T17:23:45.947Z,2.07
2018-06-22T17:26:15.199Z,2.03
2018-06-22T17:28:44.505Z,1.90
2018-06-22T17:31:13.847Z,1.80
2018-06-22T17:33:43.205Z,1.83
2018-06-22T17:36:12.514Z,2.57
2018-06-22T17:38:41.836Z,1.83
2018-06-22T17:41:11.827Z,2.10
2018-06-22T17:43:41.278Z,2.50
2018-06-22T17:46:10.754Z,2.53
2018-06-22T17:48:39.963Z,2.50
2018-06-22T17:51:09.301Z,1.90
2018-06-22T17:53:38.691Z,2.03
2018-06-22T17:56:08.055Z,2.00
2018-06-22T17:58:37.329Z,2.17
2018-06-22T18:01:12.509Z,2.37
2018-06-22T18:03:46.987Z,1.63
2018-06-22T18:07:20.978Z,1.80
2018-06-22T18:09:55.619Z,2.00
2018-06-22T18:12:30.078Z,1.90
2018-06-22T18:15:00.091Z,2.63
2018-06-22T18:17:30.541Z,2.10
2018-06-22T18:19:59.900Z,2.20
2018-06-22T18:22:29.164Z,2.33
2018-06-22T18:24:58.506Z,2.43
2018-06-22T18:27:27.814Z,2.43
2018-06-22T18:29:57.289Z,2.20
2018-06-22T18:32:26.340Z,2.43
2018-06-22T18:34:55.643Z,2.20
2018-06-22T18:37:25.022Z,2.37
2018-06-22T18:39:54.368Z,2.37
2018-06-22T18:42:23.618Z,1.97
2018-06-22T18:44:52.917Z,2.33
2018-06-22T18:47:22.267Z,2.00
2018-06-22T18:49:52.610Z,2.13
2018-06-22T18:52:27.118Z,1.87
2018-06-22T18:55:01.876Z,2.20
2018-06-22T18:57:36.278Z,2.00
2018-06-22T19:00:11.057Z,2.63
2018-06-22T19:02:45.663Z,6.13
2018-06-22T19:05:14.955Z,3.37
2018-06-22T19:07:44.274Z,2.20
2018-06-22T19:10:13.542Z,2.20
2018-06-22T19:12:42.889Z,2.27
2018-06-22T19:15:12.199Z,2.43
2018-06-22T19:17:41.522Z,2.33
2018-06-22T19:20:10.847Z,2.07
2018-06-22T19:22:40.199Z,2.33
2018-06-22T19:25:09.591Z,2.47
2018-06-22T19:27:38.832Z,2.20
2018-06-22T19:30:08.918Z,2.70
2018-06-22T19:32:38.645Z,2.37
2018-06-22T19:35:14.191Z,2.20
2018-06-22T19:37:44.455Z,2.23
2018-06-22T19:40:14.142Z,2.00
2018-06-22T19:42:43.384Z,2.33
2018-06-22T19:45:17.915Z,2.40
2018-06-22T19:47:52.343Z,2.13
2018-06-22T19:50:26.811Z,2.60
2018-06-22T19:53:01.424Z,2.10
2018-06-22T19:55:30.704Z,2.40
2018-06-22T19:58:00.050Z,1.90
2018-06-22T20:00:29.363Z,2.07
2018-06-22T20:02:58.655Z,2.70
2018-06-22T20:05:27.990Z,2.67
2018-06-22T20:07:57.066Z,2.03
2018-06-22T20:10:26.413Z,2.90
2018-06-22T20:12:55.695Z,2.43
2018-06-22T20:15:25.864Z,2.37
2018-06-22T20:17:55.637Z,2.33
2018-06-22T20:20:24.912Z,2.73
2018-06-22T20:22:54.279Z,2.50
2018-06-22T20:25:28.806Z,2.50
2018-06-22T20:27:58.276Z,3.37
2018-06-22T20:30:27.567Z,2.70
2018-06-22T20:32:56.705Z,3.00
2018-06-22T20:35:31.692Z,2.40
2018-06-22T20:38:06.220Z,2.97
2018-06-22T20:40:40.845Z,3.50
2018-06-22T20:43:15.582Z,3.37
2018-06-22T20:46:01.364Z,2.50
2018-06-22T20:48:35.903Z,3.23
2018-06-22T20:51:05.422Z,3.23
2018-06-22T20:53:34.706Z,3.33
2018-06-22T20:56:03.785Z,2.70
2018-06-22T20:58:33.055Z,3.10
2018-06-22T21:01:02.371Z,3.00
2018-06-22T21:03:31.693Z,3.70
2018-06-22T21:06:01.182Z,3.30
2018-06-22T21:08:30.519Z,3.73
2018-06-22T21:10:59.820Z,3.77
2018-06-22T21:13:29.152Z,3.00
2018-06-22T21:15:58.536Z,3.00
2018-06-22T21:18:27.890Z,3.67
2018-06-22T21:21:02.627Z,2.87
2018-06-22T21:23:31.933Z,3.10
2018-06-22T21:26:01.231Z,3.07
2018-06-22T21:28:35.806Z,3.10
2018-06-22T21:31:10.113Z,3.27
2018-06-22T21:33:45.751Z,3.30
2018-06-22T21:36:20.307Z,3.77
2018-06-22T21:39:02.557Z,3.67
2018-06-22T21:41:32.039Z,3.60
2018-06-22T21:44:01.108Z,3.20
2018-06-22T21:46:30.449Z,3.20
2018-06-22T21:48:59.784Z,3.10
2018-06-22T21:51:29.075Z,3.67
2018-06-22T21:53:58.189Z,3.37
2018-06-22T21:56:27.521Z,3.73
2018-06-22T21:58:56.621Z,3.67
2018-06-22T22:01:26.253Z,3.70
2018-06-22T22:03:55.515Z,3.30
2018-06-22T22:06:24.775Z,4.03
2018-06-22T22:08:54.172Z,3.27
2018-06-22T22:11:29.309Z,3.33
2018-06-22T22:13:59.410Z,3.83
2018-06-22T22:16:31.955Z,3.43
2018-06-22T22:19:02.139Z,3.97
2018-06-22T22:21:32.840Z,3.90
2018-06-22T22:24:02.760Z,3.43
2018-06-22T22:26:33.184Z,3.93
2018-06-22T22:29:04.265Z,3.70
2018-06-22T22:31:33.543Z,3.83
2018-06-22T22:34:02.919Z,3.50
2018-06-22T22:36:32.311Z,3.53
2018-06-22T22:39:02.265Z,4.07
2018-06-22T22:41:33.425Z,4.60
2018-06-22T22:44:04.405Z,2.93
2018-06-22T22:46:34.637Z,3.83
2018-06-22T22:49:04.967Z,3.53
2018-06-22T22:51:36.754Z,3.10
2018-06-22T22:54:07.116Z,3.30
2018-06-22T22:56:36.453Z,3.10
2018-06-22T22:59:05.911Z,3.33
2018-06-22T23:01:35.305Z,3.93
2018-06-22T23:04:04.910Z,3.40
2018-06-22T23:06:34.219Z,3.37
2018-06-22T23:09:03.847Z,4.57
2018-06-22T23:11:33.235Z,3.70
2018-06-22T23:14:02.613Z,3.60
2018-06-22T23:16:31.995Z,4.37
2018-06-22T23:19:02.351Z,4.13
2018-06-22T23:21:31.645Z,3.60
2018-06-22T23:24:00.653Z,3.87
2018-06-22T23:26:29.948Z,3.63
2018-06-22T23:28:59.358Z,3.73
2018-06-22T23:31:29.236Z,3.67
2018-06-22T23:33:58.651Z,3.07
2018-06-22T23:36:28.028Z,3.97
2018-06-22T23:38:57.363Z,4.07
2018-06-22T23:41:26.676Z,4.00
2018-06-22T23:43:55.979Z,3.90
2018-06-22T23:46:25.327Z,3.40
2018-06-22T23:48:54.630Z,3.40
2018-06-22T23:51:23.984Z,3.27
2018-06-22T23:53:53.375Z,3.20
2018-06-22T23:56:22.686Z,3.40
2018-06-22T23:58:51.756Z,3.37
